Time;durP1;ratioP1;P1;durP2;ratioP2;P2;SDS_P1;SDS_P2;PMS_P1;PMS_P2;Temp;Humidity;BMP_temperature;BMP_pressure;BME280_temperature;BME280_humidity;BME280_pressure;Samples;Min_cycle;Max_cycle;Signal;HPM_P1;HPM_P2
2023/07/13 00:00:28;;;;;;;3.92;1.42;;;;;;;15.62;100.00;93139.84;2581435;23;20559;-80
2023/07/13 00:01:31;;;;;;;1.75;1.10;;;;;;;15.64;100.00;93144.84;2584350;23;20030;-82
2023/07/13 00:02:32;;;;;;;2.83;1.25;;;;;;;15.61;100.00;93146.44;2559756;23;20037;-80
2023/07/13 00:03:34;;;;;;;2.85;1.15;;;;;;;15.59;100.00;93143.47;2559539;23;20077;-80
2023/07/13 00:04:36;;;;;;;3.10;1.20;;;;;;;15.60;100.00;93138.81;2570928;23;20379;-82
2023/07/13 00:05:37;;;;;;;3.72;1.08;;;;;;;15.58;100.00;93133.13;2558938;23;20009;-82
2023/07/13 00:06:37;;;;;;;4.90;1.60;;;;;;;15.58;100.00;93133.88;2545686;23;20453;-82
2023/07/13 00:07:39;;;;;;;1.20;1.00;;;;;;;15.58;100.00;93138.50;2557459;23;20009;-82
2023/07/13 00:08:40;;;;;;;2.92;1.33;;;;;;;15.56;100.00;93128.19;2557325;23;20088;-80
2023/07/13 00:09:43;;;;;;;2.28;1.10;;;;;;;15.57;100.00;93132.38;2544550;23;20389;-81
2023/07/13 00:10:45;;;;;;;3.38;1.00;;;;;;;15.57;100.00;93129.69;2569557;23;20066;-85
2023/07/13 00:11:53;;;;;;;2.60;1.10;;;;;;;15.57;100.00;93137.00;2568745;23;20031;-82
2023/07/13 00:12:55;;;;;;;2.67;1.27;;;;;;;15.59;100.00;93135.38;2557914;23;20035;-80
2023/07/13 00:13:56;;;;;;;3.83;1.40;;;;;;;15.57;100.00;93137.00;2543699;23;20088;-82
2023/07/13 00:15:05;;;;;;;1.73;1.30;;;;;;;15.57;100.00;93137.00;2543641;23;20300;-82
2023/07/13 00:16:13;;;;;;;3.08;1.15;;;;;;;15.61;100.00;93138.38;2546994;23;20092;-82
2023/07/13 00:17:14;;;;;;;5.10;1.08;;;;;;;15.69;100.00;93136.16;2570148;23;20009;-81
2023/07/13 00:18:15;;;;;;;4.95;1.40;;;;;;;15.70;100.00;93139.59;2568734;23;20000;-82
2023/07/13 00:19:16;;;;;;;3.97;1.10;;;;;;;15.71;100.00;93139.16;2556589;23;20067;-85
2023/07/13 00:20:17;;;;;;;3.63;1.15;;;;;;;15.76;100.00;93140.50;2568721;23;20031;-81
2023/07/13 00:21:19;;;;;;;3.17;1.13;;;;;;;15.71;100.00;93133.00;2556239;23;20033;-81
2023/07/13 00:22:19;;;;;;;4.13;1.30;;;;;;;15.73;100.00;93136.03;2568721;23;20078;-81
2023/07/13 00:23:24;;;;;;;3.17;1.10;;;;;;;15.67;100.00;93135.88;2568608;23;20438;-80
2023/07/13 00:24:27;;;;;;;1.83;1.20;;;;;;;15.70;100.00;93131.53;2568486;23;20005;-81
2023/07/13 00:25:28;;;;;;;1.70;1.00;;;;;;;15.85;100.00;93135.88;2556848;23;20467;-81
2023/07/13 00:26:29;;;;;;;5.03;1.40;;;;;;;16.04;100.00;93125.84;2556300;23;20001;-80
2023/07/13 00:27:31;;;;;;;2.88;1.23;;;;;;;15.86;100.00;93125.84;2557183;23;20009;-84
2023/07/13 00:28:33;;;;;;;2.25;1.05;;;;;;;15.86;100.00;93125.84;2569356;23;20055;-82
2023/07/13 00:29:35;;;;;;;2.03;1.13;;;;;;;15.94;100.00;93116.28;2569123;23;20008;-81
2023/07/13 00:30:36;;;;;;;2.50;1.20;;;;;;;15.86;100.00;93123.16;2556707;23;20371;-81
2023/07/13 00:31:38;;;;;;;1.35;0.70;;;;;;;15.74;100.00;93121.34;2544684;23;20009;-82
2023/07/13 00:32:39;;;;;;;1.67;1.10;;;;;;;15.72;100.00;93121.06;2556956;23;20009;-80
2023/07/13 00:33:40;;;;;;;2.08;1.08;;;;;;;15.79;100.00;93121.50;2568735;23;20327;-81
2023/07/13 00:34:41;;;;;;;3.78;1.10;;;;;;;15.79;100.00;93113.41;2580782;23;20023;-82
2023/07/13 00:35:43;;;;;;;4.50;1.15;;;;;;;15.89;100.00;93116.09;2568027;23;20000;-83
2023/07/13 00:36:44;;;;;;;4.45;1.42;;;;;;;15.77;100.00;93117.75;2555755;23;20530;-81
2023/07/13 00:37:45;;;;;;;1.90;1.10;;;;;;;15.71;100.00;93114.91;2556198;23;20012;-82
2023/07/13 00:38:47;;;;;;;3.85;1.42;;;;;;;15.68;100.00;93118.50;2580676;23;20024;-82
2023/07/13 00:39:48;;;;;;;3.60;1.02;;;;;;;15.65;100.00;93118.66;2544344;23;20013;-81
2023/07/13 00:40:49;;;;;;;3.22;1.40;;;;;;;15.60;100.00;93122.66;2544228;23;20028;-81
2023/07/13 00:41:51;;;;;;;3.13;1.00;;;;;;;15.57;100.00;93121.59;2568164;23;20377;-79
2023/07/13 00:42:53;;;;;;;3.50;1.15;;;;;;;15.51;100.00;93115.31;2581003;23;20075;-81
2023/07/13 00:43:57;;;;;;;4.18;1.25;;;;;;;15.47;100.00;93122.78;2568319;23;20011;-80
2023/07/13 00:45:11;;;;;;;7.95;1.85;;;;;;;15.48;100.00;93123.53;2557456;23;20008;-82
2023/07/13 00:46:20;;;;;;;1.45;0.93;;;;;;;15.43;100.00;93119.47;2561434;23;20001;-82
2023/07/13 00:47:20;;;;;;;4.93;1.40;;;;;;;15.45;100.00;93121.72;2570129;23;20005;-81
2023/07/13 00:48:33;;;;;;;2.50;1.20;;;;;;;15.46;100.00;93124.00;2568238;23;20004;-81
2023/07/13 00:49:37;;;;;;;2.63;1.15;;;;;;;15.45;100.00;93127.09;2558713;23;20012;-82
2023/07/13 00:50:41;;;;;;;6.03;1.20;;;;;;;15.40;100.00;93122.31;2557179;23;20471;-82
2023/07/13 00:52:03;;;;;;;4.13;1.20;;;;;;;15.38;100.00;93116.63;2544363;23;20002;-81
2023/07/13 00:53:04;;;;;;;1.23;1.05;;;;;;;15.28;100.00;93124.69;2552236;23;20005;-81
2023/07/13 00:54:09;;;;;;;6.07;1.10;;;;;;;15.27;100.00;93123.19;2543319;23;20005;-81
2023/07/13 00:55:12;;;;;;;1.88;1.25;;;;;;;15.24;100.00;93118.69;2545385;23;20013;-82
2023/07/13 00:56:14;;;;;;;3.85;0.88;;;;;;;15.19;100.00;93115.81;2568135;23;20071;-81
2023/07/13 00:57:20;;;;;;;3.85;1.10;;;;;;;15.24;100.00;93124.09;2568792;23;20103;-82
2023/07/13 00:58:21;;;;;;;3.28;1.00;;;;;;;15.25;100.00;93117.50;2581098;23;20008;-82
2023/07/13 00:59:23;;;;;;;1.67;1.23;;;;;;;15.19;100.00;93116.59;2555265;23;20009;-82
2023/07/13 01:00:26;;;;;;;3.10;1.00;;;;;;;15.23;100.00;93127.22;2544277;23;20006;-80
2023/07/13 01:01:29;;;;;;;3.72;1.17;;;;;;;15.18;100.00;93120.47;2556870;23;20005;-82
2023/07/13 01:02:30;;;;;;;4.75;1.27;;;;;;;15.14;100.00;93127.19;2555539;23;20012;-82
2023/07/13 01:03:34;;;;;;;2.20;1.10;;;;;;;15.14;100.00;93130.63;2543667;23;20005;-82
2023/07/13 01:04:38;;;;;;;2.20;1.05;;;;;;;15.16;100.00;93124.81;2544202;23;19998;-81
2023/07/13 01:05:40;;;;;;;4.15;1.13;;;;;;;15.11;100.00;93123.44;2557183;23;20344;-83
2023/07/13 01:06:46;;;;;;;4.15;1.02;;;;;;;15.10;100.00;93128.09;2568338;23;20024;-82
2023/07/13 01:07:51;;;;;;;3.70;1.15;;;;;;;15.14;100.00;93124.50;2582274;22;20012;-82
2023/07/13 01:08:53;;;;;;;3.45;1.15;;;;;;;15.14;100.00;93127.19;2593340;22;20070;-82
2023/07/13 01:09:54;;;;;;;3.17;1.15;;;;;;;15.16;100.00;93125.56;2569218;23;20008;-81
2023/07/13 01:10:58;;;;;;;3.83;1.15;;;;;;;15.23;100.00;93125.28;2545621;23;20016;-82
2023/07/13 01:11:59;;;;;;;1.63;1.05;;;;;;;15.12;100.00;93124.94;2545199;23;20013;-80
2023/07/13 01:13:00;;;;;;;1.83;0.90;;;;;;;15.11;100.00;93121.50;2556992;23;20059;-80
2023/07/13 01:14:03;;;;;;;1.70;1.10;;;;;;;15.18;100.00;93119.72;2568551;23;20402;-82
2023/07/13 01:15:05;;;;;;;1.48;1.00;;;;;;;15.14;100.00;93122.53;2556059;23;20080;-82
2023/07/13 01:16:19;;;;;;;4.22;1.08;;;;;;;15.20;100.00;93122.72;2557374;23;20337;-82
2023/07/13 01:17:21;;;;;;;2.70;1.30;;;;;;;15.10;100.00;93122.69;2582927;23;20011;-81
2023/07/13 01:18:29;;;;;;;3.25;1.15;;;;;;;15.05;100.00;93117.13;2568826;23;20458;-81
2023/07/13 01:19:36;;;;;;;2.95;1.30;;;;;;;15.08;100.00;93116.25;2546770;23;20009;-82
2023/07/13 01:20:40;;;;;;;2.33;1.00;;;;;;;15.03;100.00;93122.97;2569148;23;20004;-81
2023/07/13 01:21:43;;;;;;;5.78;1.10;;;;;;;15.13;100.00;93123.00;2567679;23;20054;-83
2023/07/13 01:22:44;;;;;;;6.55;1.25;;;;;;;15.08;100.00;93113.56;2543922;23;20385;-82
2023/07/13 01:23:45;;;;;;;2.22;1.20;;;;;;;15.02;100.00;93116.09;2548481;23;20070;-82
2023/07/13 01:24:47;;;;;;;2.50;1.02;;;;;;;15.05;100.00;93125.94;2573114;23;20010;-82
2023/07/13 01:25:52;;;;;;;2.00;1.00;;;;;;;15.22;100.00;93117.63;2567808;23;20607;-80
2023/07/13 01:26:57;;;;;;;3.33;1.10;;;;;;;15.12;100.00;93133.03;2568948;23;20028;-83
2023/07/13 01:27:58;;;;;;;3.70;1.00;;;;;;;15.09;100.00;93123.13;2581017;23;20008;-82
2023/07/13 01:29:00;;;;;;;4.35;1.10;;;;;;;15.05;100.00;93119.81;2568582;23;20078;-81
2023/07/13 01:30:06;;;;;;;5.82;1.63;;;;;;;15.08;100.00;93118.94;2553172;23;20312;-80
2023/07/13 01:31:11;;;;;;;2.20;1.38;;;;;;;15.05;100.00;93123.25;2558018;23;20426;-82
2023/07/13 01:32:22;;;;;;;4.10;1.15;;;;;;;15.00;100.00;93126.53;2567815;23;20008;-83
2023/07/13 01:33:25;;;;;;;5.90;0.95;;;;;;;14.90;100.00;93124.28;2568001;23;20004;-83
2023/07/13 01:34:27;;;;;;;3.17;1.00;;;;;;;14.87;100.00;93125.88;2556146;23;20016;-81
2023/07/13 01:35:28;;;;;;;2.33;1.23;;;;;;;14.86;100.00;93122.44;2555950;23;20005;-81
2023/07/13 01:36:29;;;;;;;3.00;1.23;;;;;;;14.85;100.00;93120.97;2543781;23;20016;-83
2023/07/13 01:37:33;;;;;;;4.40;1.33;;;;;;;14.77;100.00;93119.72;2543187;23;20006;-80
2023/07/13 01:38:35;;;;;;;1.55;0.80;;;;;;;14.75;100.00;93121.34;2545137;23;20005;-82
2023/07/13 01:39:37;;;;;;;2.47;1.05;;;;;;;14.68;100.00;93116.25;2544063;23;20032;-86
2023/07/13 01:40:38;;;;;;;2.83;1.15;;;;;;;14.59;100.00;93119.66;2543825;23;20013;-80
2023/07/13 01:41:40;;;;;;;5.03;1.45;;;;;;;14.55;100.00;93114.38;2568110;23;20000;-82
2023/07/13 01:43:03;;;;;;;3.47;0.90;;;;;;;14.47;100.00;93118.50;2567333;23;20218;-82
2023/07/13 01:44:22;;;;;;;4.00;1.30;;;;;;;14.45;100.00;93112.81;2560311;23;20004;-82
2023/07/13 01:45:24;;;;;;;4.20;0.98;;;;;;;14.43;100.00;93107.13;2572046;23;20069;-80
2023/07/13 01:46:26;;;;;;;4.43;1.10;;;;;;;14.34;100.00;93115.88;2555855;23;20008;-81
2023/07/13 01:47:30;;;;;;;2.22;1.00;;;;;;;14.31;100.00;93114.09;2531890;23;20016;-81
2023/07/13 01:48:31;;;;;;;3.35;1.00;;;;;;;14.26;100.00;93120.00;2544378;23;20001;-81
2023/07/13 01:49:32;;;;;;;3.55;1.17;;;;;;;14.26;100.00;93121.94;2568843;23;20015;-81
2023/07/13 01:50:34;;;;;;;3.00;1.23;;;;;;;14.22;100.00;93130.16;2543473;23;20059;-81
2023/07/13 01:51:38;;;;;;;4.30;1.30;;;;;;;14.29;100.00;93131.84;2543855;23;20005;-81
2023/07/13 01:52:40;;;;;;;4.38;1.17;;;;;;;14.24;100.00;93140.47;2532926;23;20017;-80
2023/07/13 01:53:41;;;;;;;1.55;1.10;;;;;;;14.11;100.00;93140.53;2543550;23;20423;-81
2023/07/13 01:54:42;;;;;;;3.70;1.38;;;;;;;14.05;100.00;93143.03;2530742;23;20032;-82
2023/07/13 01:55:43;;;;;;;2.00;0.98;;;;;;;14.08;100.00;93144.84;2543789;23;20005;-80
2023/07/13 01:56:45;;;;;;;3.47;1.20;;;;;;;14.10;100.00;93145.16;2543169;23;20005;-80
2023/07/13 01:57:46;;;;;;;1.98;1.17;;;;;;;14.07;100.00;93143.34;2544469;23;20037;-80
2023/07/13 01:58:47;;;;;;;2.67;1.25;;;;;;;13.95;100.00;93146.06;2544048;23;20141;-81
2023/07/13 01:59:50;;;;;;;2.70;0.90;;;;;;;13.93;100.00;93140.41;2531562;23;20041;-82
2023/07/13 02:00:53;;;;;;;2.30;1.23;;;;;;;13.91;100.00;93132.75;2532218;23;20012;-83
2023/07/13 02:01:54;;;;;;;3.83;1.20;;;;;;;13.87;100.00;93132.13;2556797;23;20005;-81
2023/07/13 02:02:55;;;;;;;6.22;1.20;;;;;;;13.83;100.00;93139.59;2568184;23;20364;-83
2023/07/13 02:03:58;;;;;;;2.97;1.30;;;;;;;13.73;100.00;93140.66;2555801;23;20012;-81
2023/07/13 02:04:59;;;;;;;4.18;1.30;;;;;;;13.76;100.00;93134.44;2544128;23;20415;-80
2023/07/13 02:06:00;;;;;;;3.25;1.38;;;;;;;13.80;100.00;93127.75;2556196;23;20008;-81
2023/07/13 02:07:02;;;;;;;2.15;1.38;;;;;;;13.78;100.00;93129.38;2555748;23;20422;-80
2023/07/13 02:08:03;;;;;;;1.95;1.30;;;;;;;13.73;100.00;93122.63;2543275;23;20444;-84
2023/07/13 02:09:04;;;;;;;1.83;1.00;;;;;;;13.73;100.00;93127.25;2556178;23;20024;-83
2023/07/13 02:10:07;;;;;;;3.90;1.20;;;;;;;13.68;100.00;93131.22;2555972;23;20427;-84
2023/07/13 02:11:08;;;;;;;2.33;1.10;;;;;;;13.60;100.00;93136.09;2556363;23;20005;-80
2023/07/13 02:12:09;;;;;;;4.22;1.58;;;;;;;13.60;100.00;93129.97;2567181;23;20047;-82
2023/07/13 02:13:13;;;;;;;2.72;1.17;;;;;;;13.52;100.00;93129.47;2543338;23;20011;-84
2023/07/13 02:14:15;;;;;;;1.70;1.30;;;;;;;13.56;100.00;93137.38;2545015;23;20357;-80
2023/07/13 02:15:17;;;;;;;3.00;1.60;;;;;;;13.51;100.00;93138.69;2532324;23;20010;-82
2023/07/13 02:16:18;;;;;;;6.03;1.60;;;;;;;13.48;100.00;93130.78;2544430;23;20002;-80
2023/07/13 02:17:19;;;;;;;3.58;1.73;;;;;;;13.51;100.00;93137.94;2544090;23;20442;-82
2023/07/13 02:18:20;;;;;;;5.70;1.40;;;;;;;13.52;100.00;93137.53;2532191;23;20002;-81
2023/07/13 02:19:21;;;;;;;2.72;1.45;;;;;;;13.59;100.00;93139.22;2557841;23;20095;-82
2023/07/13 02:20:23;;;;;;;2.67;1.23;;;;;;;13.58;100.00;93140.41;2557983;23;20143;-82
2023/07/13 02:21:24;;;;;;;9.93;1.70;;;;;;;13.52;100.00;93139.44;2545155;23;20446;-82
2023/07/13 02:22:25;;;;;;;2.58;1.27;;;;;;;13.52;100.00;93150.19;2532443;23;20006;-82
2023/07/13 02:23:26;;;;;;;3.40;1.25;;;;;;;13.53;100.00;93141.72;2532107;23;20077;-80
2023/07/13 02:24:27;;;;;;;2.25;1.10;;;;;;;13.50;100.00;93147.94;2557445;23;20005;-81
2023/07/13 02:25:28;;;;;;;2.85;1.20;;;;;;;13.51;100.00;93149.44;2556539;23;20096;-82
2023/07/13 02:26:29;;;;;;;3.70;1.20;;;;;;;13.54;100.00;93145.13;2557159;23;20305;-82
2023/07/13 02:27:30;;;;;;;6.45;1.40;;;;;;;13.53;100.00;93144.38;2570067;23;20250;-81
2023/07/13 02:28:31;;;;;;;4.07;1.38;;;;;;;13.52;100.00;93145.59;2546765;23;20085;-81
2023/07/13 02:29:33;;;;;;;3.40;1.40;;;;;;;13.56;100.00;93137.38;2531316;23;20013;-81
2023/07/13 02:30:35;;;;;;;2.63;1.40;;;;;;;13.58;100.00;93143.09;2554980;23;20017;-83
2023/07/13 02:31:38;;;;;;;4.05;1.35;;;;;;;13.58;100.00;93140.41;2580835;23;20000;-84
2023/07/13 02:32:39;;;;;;;4.82;1.30;;;;;;;13.54;100.00;93140.50;2568043;23;20012;-81
2023/07/13 02:33:42;;;;;;;3.28;1.23;;;;;;;13.52;100.00;93139.44;2543799;23;20060;-81
2023/07/13 02:34:43;;;;;;;5.60;1.20;;;;;;;13.59;100.00;93142.66;2544956;23;20011;-81
2023/07/13 02:35:44;;;;;;;4.47;1.13;;;;;;;13.56;100.00;93146.22;2543659;23;20088;-81
2023/07/13 02:36:45;;;;;;;2.92;1.27;;;;;;;13.43;100.00;93147.41;2544444;23;20253;-82
2023/07/13 02:37:48;;;;;;;3.03;1.35;;;;;;;13.45;100.00;93142.38;2556423;23;20044;-82
2023/07/13 02:38:50;;;;;;;1.90;1.10;;;;;;;13.48;100.00;93144.94;2557180;23;20041;-81
2023/07/13 02:39:51;;;;;;;3.70;1.60;;;;;;;13.42;100.00;93140.53;2550251;23;20418;-83
2023/07/13 02:40:56;;;;;;;5.80;1.73;;;;;;;13.43;100.00;93142.03;2544355;23;20309;-84
2023/07/13 02:41:57;;;;;;;4.10;1.52;;;;;;;13.45;100.00;93142.38;2532747;23;20005;-80
2023/07/13 02:42:57;;;;;;;4.72;1.10;;;;;;;13.48;100.00;93134.19;2544036;23;20309;-81
2023/07/13 02:44:03;;;;;;;2.72;1.48;;;;;;;13.50;100.00;93131.81;2555556;23;20028;-80
2023/07/13 02:45:08;;;;;;;2.30;1.35;;;;;;;13.47;100.00;93127.31;2545126;23;20006;-84
2023/07/13 02:46:12;;;;;;;1.95;1.35;;;;;;;13.42;100.00;93127.84;2544531;23;20006;-80
2023/07/13 02:47:13;;;;;;;3.53;1.30;;;;;;;13.51;100.00;93129.88;2544359;23;20401;-83
2023/07/13 02:48:16;;;;;;;4.15;1.30;;;;;;;13.49;100.00;93121.53;2532362;23;20014;-83
2023/07/13 02:49:17;;;;;;;3.17;1.30;;;;;;;13.49;100.00;93133.00;2557129;23;20005;-81
2023/07/13 02:50:18;;;;;;;3.28;1.55;;;;;;;13.55;100.00;93125.91;2582206;23;20008;-80
2023/07/13 02:51:20;;;;;;;4.97;1.92;;;;;;;13.60;100.00;93132.66;2569372;23;20012;-84
2023/07/13 02:52:39;;;;;;;2.70;1.33;;;;;;;13.51;100.00;93127.19;2557652;23;20005;-81
2023/07/13 02:53:40;;;;;;;5.55;1.25;;;;;;;13.47;100.00;93137.31;2570165;23;20008;-81
2023/07/13 02:54:41;;;;;;;7.40;1.48;;;;;;;13.44;100.00;93133.56;2556598;23;20412;-81
2023/07/13 02:55:47;;;;;;;2.53;1.60;;;;;;;13.52;100.00;93137.53;2544667;23;20069;-81
2023/07/13 02:56:51;;;;;;;5.28;1.50;;;;;;;13.44;100.00;93135.50;2547107;23;20012;-81
2023/07/13 02:57:52;;;;;;;2.65;1.30;;;;;;;13.45;100.00;93137.75;2544575;23;20058;-79
2023/07/13 02:58:58;;;;;;;2.83;1.38;;;;;;;13.40;100.00;93140.97;2544713;23;20012;-81
2023/07/13 03:00:00;;;;;;;5.30;1.77;;;;;;;13.40;100.00;93134.88;2546316;23;20238;-81
2023/07/13 03:01:07;;;;;;;5.35;1.35;;;;;;;13.37;100.00;93136.47;2544872;23;20371;-80
2023/07/13 03:02:11;;;;;;;3.97;1.13;;;;;;;13.41;100.00;93139.03;2534705;23;20125;-81
2023/07/13 03:03:14;;;;;;;3.60;1.30;;;;;;;13.39;100.00;93127.97;2533340;23;20006;-79
2023/07/13 03:04:19;;;;;;;2.28;1.40;;;;;;;13.43;100.00;93134.72;2545243;23;20035;-79
2023/07/13 03:05:24;;;;;;;2.80;1.65;;;;;;;13.42;100.00;93125.19;2558437;23;20025;-80
2023/07/13 03:06:25;;;;;;;2.00;1.30;;;;;;;13.37;100.00;93127.66;2557099;23;20451;-81
2023/07/13 03:07:27;;;;;;;3.65;1.67;;;;;;;13.31;100.00;93132.84;2556258;23;20354;-80
2023/07/13 03:08:30;;;;;;;2.33;1.50;;;;;;;13.28;100.00;93126.38;2545077;23;20497;-81
2023/07/13 03:09:36;;;;;;;1.92;1.38;;;;;;;13.26;100.00;93128.03;2545772;23;20336;-80
2023/07/13 03:10:39;;;;;;;3.90;1.67;;;;;;;13.14;100.00;93129.50;2546221;23;20336;-78
2023/07/13 03:11:40;;;;;;;2.92;1.55;;;;;;;13.07;100.00;93138.50;2545142;23;20009;-81
2023/07/13 03:12:41;;;;;;;3.45;1.33;;;;;;;13.17;100.00;93142.06;2532969;23;20002;-79
2023/07/13 03:13:43;;;;;;;3.08;1.50;;;;;;;13.15;100.00;93139.03;2558112;23;20321;-79
2023/07/13 03:14:45;;;;;;;6.88;1.55;;;;;;;13.14;100.00;93136.81;2569888;23;20004;-81
2023/07/13 03:15:48;;;;;;;3.17;1.30;;;;;;;13.16;100.00;93129.81;2545556;23;20100;-78
2023/07/13 03:16:49;;;;;;;4.18;1.40;;;;;;;13.19;100.00;93134.31;2533366;23;20012;-81
2023/07/13 03:17:50;;;;;;;2.75;1.45;;;;;;;13.16;100.00;93139.78;2545491;23;20006;-81
2023/07/13 03:18:51;;;;;;;2.45;1.30;;;;;;;13.17;100.00;93130.56;2544846;23;20102;-80
2023/07/13 03:19:52;;;;;;;2.22;1.52;;;;;;;13.13;100.00;93124.56;2532169;23;20005;-80
2023/07/13 03:20:56;;;;;;;4.53;1.60;;;;;;;13.18;100.00;93129.41;2544543;23;20005;-81
2023/07/13 03:21:57;;;;;;;7.13;1.88;;;;;;;13.21;100.00;93133.88;2544292;23;20045;-79
2023/07/13 03:22:59;;;;;;;4.20;2.40;;;;;;;13.16;100.00;93129.81;2532131;23;20026;-82
2023/07/13 03:24:00;;;;;;;4.28;1.90;;;;;;;13.09;100.00;93135.41;2543977;23;20013;-80
2023/07/13 03:25:01;;;;;;;2.65;1.52;;;;;;;13.09;100.00;93127.34;2531207;23;20104;-79
2023/07/13 03:26:06;;;;;;;4.55;1.63;;;;;;;13.12;100.00;93129.16;2531327;23;20028;-79
2023/07/13 03:27:07;;;;;;;5.10;1.70;;;;;;;13.09;100.00;93130.03;2532896;23;20503;-80
2023/07/13 03:28:08;;;;;;;4.75;1.60;;;;;;;13.07;100.00;93133.13;2531622;23;20006;-79
2023/07/13 03:31:14;;;;;;;5.82;1.83;;;;;;;13.14;100.00;93134.88;2595913;22;20204;-79
2023/07/13 03:32:14;;;;;;;8.35;2.05;;;;;;;13.10;100.00;93132.28;2590098;23;20071;-79
2023/07/13 03:33:15;;;;;;;3.30;1.70;;;;;;;13.09;100.00;93135.41;2564062;23;19995;-80
2023/07/13 03:34:16;;;;;;;4.15;1.80;;;;;;;13.17;100.00;93138.59;2544951;23;20013;-80
2023/07/13 03:37:19;;;;;;;4.65;1.70;;;;;;;13.23;100.00;93144.97;2580727;23;20008;-85
2023/07/13 03:39:09;;;;;;;6.20;1.75;;;;;;;13.18;100.00;93135.50;2557090;23;20013;-81
2023/07/13 03:42:38;;;;;;;3.22;1.70;;;;;;;13.10;100.00;93128.84;2579544;23;20472;-82
2023/07/13 03:43:39;;;;;;;4.47;1.60;;;;;;;13.09;100.00;93138.84;2562190;23;20370;-83
2023/07/13 03:44:40;;;;;;;11.30;1.90;;;;;;;13.02;100.00;93136.38;2556508;23;20340;-84
2023/07/13 03:45:41;;;;;;;7.15;2.08;;;;;;;13.07;100.00;93138.50;2556776;23;20009;-82
2023/07/13 03:46:43;;;;;;;4.85;1.63;;;;;;;12.98;100.00;93145.72;2544393;23;20006;-82
2023/07/13 03:51:53;;;;;;;4.78;1.83;;;;;;;12.88;100.00;93150.22;2579896;23;20058;-83
2023/07/13 03:55:08;;;;;;;6.72;1.50;;;;;;;13.03;100.00;93145.91;2603514;22;20028;-82
2023/07/13 03:56:10;;;;;;;5.22;1.98;;;;;;;13.05;100.00;93148.19;2575847;23;20047;-82
2023/07/13 03:57:10;;;;;;;9.13;1.70;;;;;;;13.08;100.00;93145.41;2573916;23;20018;-83
2023/07/13 03:58:31;;;;;;;6.50;1.92;;;;;;;13.05;100.00;93151.63;2573976;23;20103;-81
2023/07/13 04:01:41;;;;;;;3.75;1.90;;;;;;;13.11;100.00;93152.56;2580104;23;20039;-83
2023/07/13 04:02:43;;;;;;;5.43;1.70;;;;;;;13.14;100.00;93155.59;2584872;22;20000;-81
2023/07/13 04:07:54;;;;;;;9.60;1.90;;;;;;;13.24;100.00;93157.22;2580655;23;20119;-81
2023/07/13 04:10:53;;;;;;;2.10;1.77;;;;;;;13.24;100.00;93171.38;2580278;23;20027;-84
2023/07/13 04:13:51;;;;;;;6.88;1.90;;;;;;;13.31;100.00;93167.75;2579194;23;20541;-80
2023/07/13 04:16:49;;;;;;;9.38;1.90;;;;;;;13.33;100.00;93168.03;2579820;23;20016;-83
2023/07/13 04:19:48;;;;;;;6.22;1.77;;;;;;;13.35;100.00;93169.13;2593006;22;20008;-81
2023/07/13 04:31:25;;;;;;;4.45;2.30;;;;;;;13.27;100.00;93165.16;2593185;22;20095;-83
2023/07/13 04:32:26;;;;;;;3.08;1.92;;;;;;;13.27;100.00;93162.47;2567670;23;20027;-82
2023/07/13 04:33:30;;;;;;;4.53;1.98;;;;;;;13.30;100.00;93175.03;2568396;23;20063;-86
2023/07/13 04:36:56;;;;;;;4.70;2.28;;;;;;;13.29;100.00;93172.78;2565979;23;20009;-82
2023/07/13 04:38:39;;;;;;;10.65;2.22;;;;;;;13.40;100.00;93180.50;2574874;23;20008;-82
2023/07/13 04:40:30;;;;;;;5.25;2.15;;;;;;;13.51;100.00;93186.28;2568998;23;20024;-82
2023/07/13 04:43:32;;;;;;;9.93;2.28;;;;;;;13.51;100.00;93194.34;2573883;23;20099;-82
2023/07/13 04:44:33;;;;;;;7.07;2.40;;;;;;;13.52;100.00;93185.88;2571467;23;20007;-83
2023/07/13 04:47:31;;;;;;;5.47;2.15;;;;;;;13.52;100.00;93188.53;2566537;23;20089;-83
2023/07/13 04:49:25;;;;;;;6.53;2.42;;;;;;;13.60;100.00;93195.16;2556282;23;20013;-84
2023/07/13 04:51:10;;;;;;;4.60;2.58;;;;;;;13.63;100.00;93193.56;2579401;23;20087;-83
2023/07/13 04:52:14;;;;;;;7.15;3.17;;;;;;;13.72;100.00;93199.03;2556233;23;20012;-81
2023/07/13 04:53:15;;;;;;;6.80;2.40;;;;;;;13.77;100.00;93201.16;2545167;23;20350;-83
2023/07/13 04:58:11;;;;;;;7.93;2.75;;;;;;;13.87;100.00;93191.25;2568301;23;20427;-84
2023/07/13 05:01:10;;;;;;;5.80;2.20;;;;;;;13.86;100.00;93198.56;2568808;23;20330;-83
2023/07/13 05:02:11;;;;;;;6.03;2.83;;;;;;;13.84;100.00;93195.56;2570615;23;20005;-83
2023/07/13 05:03:20;;;;;;;8.73;2.70;;;;;;;14.04;100.00;93200.66;2570383;23;20000;-81
2023/07/13 05:04:25;;;;;;;4.10;2.63;;;;;;;13.99;100.00;93192.41;2545851;23;20005;-81
2023/07/13 05:07:24;;;;;;;7.15;2.50;;;;;;;14.06;100.00;93209.03;2583126;23;20054;-81
2023/07/13 05:08:27;;;;;;;9.50;2.90;;;;;;;14.11;100.00;93203.09;2556159;23;20001;-83
2023/07/13 05:09:32;;;;;;;6.90;2.83;;;;;;;14.13;100.00;93205.34;2533584;23;20056;-83
2023/07/13 05:10:35;;;;;;;7.40;2.30;;;;;;;14.15;100.00;93202.25;2559541;23;20041;-82
2023/07/13 05:11:41;;;;;;;7.57;2.53;;;;;;;14.22;100.00;93210.03;2569285;23;20004;-82
2023/07/13 05:12:42;;;;;;;7.78;2.60;;;;;;;14.25;100.00;93212.63;2546035;23;20020;-83
2023/07/13 05:13:43;;;;;;;7.45;2.55;;;;;;;14.25;100.00;93209.19;2557066;23;20005;-82
2023/07/13 05:14:45;;;;;;;8.52;2.70;;;;;;;14.22;100.00;93204.69;2569797;23;20442;-81
2023/07/13 05:15:55;;;;;;;5.78;2.38;;;;;;;14.26;100.00;93205.31;2557190;23;20005;-81
2023/07/13 05:16:57;;;;;;;;;;;;;;;14.35;100.00;93214.22;2547053;23;20028;-81
2023/07/13 05:17:58;;;;;;;4.82;3.08;;;;;;;14.43;100.00;93208.56;2545776;23;19983;-81
2023/07/13 05:18:59;;;;;;;8.73;2.65;;;;;;;14.50;100.00;93211.03;2569973;23;20023;-81
2023/07/13 05:20:00;;;;;;;5.82;2.53;;;;;;;14.53;100.00;93213.63;2557178;23;20407;-82
2023/07/13 05:21:06;;;;;;;4.63;2.38;;;;;;;14.58;100.00;93204.22;2543789;23;20329;-85
2023/07/13 05:22:06;;;;;;;8.00;2.60;;;;;;;14.64;100.00;93210.53;2557175;23;20016;-81
2023/07/13 05:23:10;;;;;;;7.97;2.70;;;;;;;14.70;100.00;93205.34;2569180;23;20461;-80
2023/07/13 05:24:14;;;;;;;9.95;3.30;;;;;;;14.77;100.00;93210.47;2569239;23;20135;-82
2023/07/13 05:25:19;;;;;;;5.70;2.58;;;;;;;14.82;100.00;93204.50;2557155;23;20005;-81
2023/07/13 05:26:21;;;;;;;9.25;3.03;;;;;;;14.90;100.00;93210.41;2569137;23;20012;-82
2023/07/13 05:27:23;;;;;;;11.90;2.90;;;;;;;14.90;100.00;93213.09;2569728;23;20000;-82
2023/07/13 05:28:25;;;;;;;6.40;2.80;;;;;;;14.93;100.00;93212.22;2555720;23;20024;-83
2023/07/13 05:29:26;;;;;;;16.92;3.10;;;;;;;15.13;100.00;93209.91;2544179;23;20037;-83
2023/07/13 05:30:31;;;;;;;7.00;3.72;;;;;;;15.15;100.00;93212.91;2543937;23;20037;-85
2023/07/13 05:31:32;;;;;;;9.10;3.42;;;;;;;15.18;100.00;93208.56;2545978;23;20089;-85
2023/07/13 05:32:33;;;;;;;6.22;2.70;;;;;;;15.14;100.00;93211.41;2543695;23;20458;-82
2023/07/13 05:33:34;;;;;;;7.70;2.83;;;;;;;15.11;100.00;93218.44;2531352;23;20005;-81
2023/07/13 05:34:36;;;;;;;7.20;3.10;;;;;;;15.01;100.00;93219.59;2542790;23;20080;-83
2023/07/13 05:35:37;;;;;;;5.10;2.75;;;;;;;14.98;100.00;93220.47;2548459;23;20309;-82
2023/07/13 05:36:38;;;;;;;9.73;3.53;;;;;;;15.01;100.00;93214.19;2561567;23;20004;-82
2023/07/13 05:37:39;;;;;;;9.27;3.30;;;;;;;15.13;100.00;93230.69;2576923;23;20438;-83
2023/07/13 05:38:42;;;;;;;9.27;3.15;;;;;;;15.16;100.00;93230.56;2564020;23;20012;-81
2023/07/13 05:39:44;;;;;;;8.93;3.03;;;;;;;15.23;100.00;93224.94;2564415;23;20000;-80
2023/07/13 05:40:46;;;;;;;5.82;3.03;;;;;;;15.27;100.00;93238.22;2548704;23;20008;-83
2023/07/13 05:41:48;;;;;;;9.85;3.10;;;;;;;15.32;100.00;93230.34;2554039;23;20005;-82
2023/07/13 05:45:32;;;;;;;13.27;2.83;;;;;;;15.40;100.00;93227.38;2567686;23;20016;-81
2023/07/13 05:46:42;;;;;;;8.80;2.67;;;;;;;15.44;100.00;93234.13;2563040;23;20403;-83
2023/07/13 05:47:43;;;;;;;11.05;3.15;;;;;;;15.47;100.00;93227.84;2554106;23;20012;-82
2023/07/13 05:48:44;;;;;;;13.13;3.13;;;;;;;15.50;100.00;93232.34;2539730;23;20028;-83
2023/07/13 05:52:39;;;;;;;7.53;3.20;;;;;;;15.64;100.00;93241.84;2577902;23;20351;-80